Time;durP1;ratioP1;P1;durP2;ratioP2;P2;SDS_P1;SDS_P2;PMS_P1;PMS_P2;Temp;Humidity;BMP_temperature;BMP_pressure;BME280_temperature;BME280_humidity;BME280_pressure;Samples;Min_cycle;Max_cycle;Signal;HPM_P1;HPM_P2
2022/12/03 00:00:14;;;;;;;0.30;0.30;;;4.00;99.90;;;;;;5046925;28;20028;-80
2022/12/03 00:02:40;;;;;;;0.55;0.55;;;4.10;99.90;;;;;;5042157;28;20036;-79
2022/12/03 00:05:05;;;;;;;0.40;0.40;;;4.10;99.90;;;;;;5039709;28;20801;-79
2022/12/03 00:07:31;;;;;;;0.85;0.70;;;4.10;99.90;;;;;;5046841;28;20032;-79
2022/12/03 00:09:57;;;;;;;0.55;0.47;;;4.00;99.90;;;;;;5046938;28;20039;-79
2022/12/03 00:12:22;;;;;;;0.10;0.10;;;4.00;99.90;;;;;;5050290;28;20138;-79
2022/12/03 00:14:48;;;;;;;2.63;0.88;;;4.00;99.90;;;;;;5038585;28;20037;-79
2022/12/03 00:17:14;;;;;;;0.60;0.60;;;4.10;99.90;;;;;;5046857;28;20033;-78
2022/12/03 00:19:39;;;;;;;1.88;1.75;;;4.00;99.90;;;;;;5047440;28;20115;-79
2022/12/03 00:22:05;;;;;;;0.45;0.45;;;4.00;99.90;;;;;;5028768;28;20044;-79
2022/12/03 00:24:31;;;;;;;0.63;0.63;;;3.90;99.90;;;;;;5046727;28;20487;-79
2022/12/03 00:26:56;;;;;;;0.57;0.57;;;3.90;99.90;;;;;;5046543;28;20032;-80
2022/12/03 00:29:22;;;;;;;0.55;0.55;;;3.90;99.90;;;;;;5047484;28;20110;-80
2022/12/03 00:31:48;;;;;;;0.80;0.80;;;3.80;99.90;;;;;;5047239;28;20036;-80
2022/12/03 00:34:13;;;;;;;0.38;0.38;;;3.90;99.90;;;;;;5045928;28;20082;-80
2022/12/03 00:36:39;;;;;;;0.75;0.73;;;3.90;99.90;;;;;;5047190;28;20361;-80
2022/12/03 00:39:05;;;;;;;0.68;0.68;;;3.90;99.90;;;;;;5049629;28;20095;-79
2022/12/03 00:41:30;;;;;;;1.23;0.80;;;3.90;99.90;;;;;;5051097;28;20033;-80
2022/12/03 00:43:56;;;;;;;1.45;0.57;;;3.80;99.90;;;;;;5050761;28;20033;-80
2022/12/03 00:46:25;;;;;;;0.43;0.43;;;3.90;99.90;;;;;;5050925;28;20113;-79
2022/12/03 00:48:51;;;;;;;0.77;0.73;;;3.90;99.90;;;;;;5050556;28;20037;-79
2022/12/03 00:51:17;;;;;;;0.10;0.10;;;3.80;99.90;;;;;;5049907;28;20059;-79
2022/12/03 00:53:43;;;;;;;1.23;1.15;;;3.90;99.90;;;;;;5049631;28;20025;-79
2022/12/03 00:56:08;;;;;;;3.45;1.10;;;3.90;99.90;;;;;;5049689;28;20103;-79
2022/12/03 00:58:34;;;;;;;0.20;0.20;;;4.00;99.90;;;;;;5050867;28;20043;-79
2022/12/03 01:01:00;;;;;;;0.35;0.35;;;3.90;99.90;;;;;;5049727;28;20635;-79
2022/12/03 01:03:26;;;;;;;0.50;0.50;;;3.80;99.90;;;;;;5032264;28;20037;-79
2022/12/03 01:05:51;;;;;;;0.80;0.80;;;3.90;99.90;;;;;;5053985;28;20025;-79
2022/12/03 01:08:17;;;;;;;0.57;0.57;;;3.90;99.90;;;;;;5050669;28;20035;-79
2022/12/03 01:10:43;;;;;;;0.65;0.60;;;4.00;99.90;;;;;;5058098;28;20040;-79
2022/12/03 01:13:09;;;;;;;2.20;1.30;;;4.00;99.90;;;;;;5050544;28;20724;-79
2022/12/03 01:15:35;;;;;;;0.70;0.70;;;4.00;99.90;;;;;;5047889;28;20033;-79
2022/12/03 01:18:00;;;;;;;0.75;0.75;;;4.10;99.90;;;;;;5050308;28;20072;-79
2022/12/03 01:20:26;;;;;;;0.50;0.50;;;4.00;99.90;;;;;;5049564;28;20020;-79
2022/12/03 01:22:53;;;;;;;0.30;0.30;;;4.00;99.90;;;;;;5032051;28;20032;-78
2022/12/03 01:25:18;;;;;;;0.60;0.60;;;3.90;99.90;;;;;;5041580;28;20033;-78
2022/12/03 01:27:44;;;;;;;1.10;1.10;;;4.00;99.90;;;;;;5061285;28;20389;-80
2022/12/03 01:30:11;;;;;;;0.93;0.93;;;3.90;99.90;;;;;;5049931;28;20063;-80
2022/12/03 01:32:36;;;;;;;0.68;0.30;;;3.90;99.90;;;;;;5046796;28;20067;-81
2022/12/03 01:35:02;;;;;;;0.60;0.60;;;4.10;99.90;;;;;;5039362;28;20065;-80
2022/12/03 01:37:28;;;;;;;1.08;0.98;;;4.10;99.90;;;;;;5031517;28;20033;-80
2022/12/03 01:39:54;;;;;;;0.40;0.40;;;4.00;99.90;;;;;;5053923;28;20025;-80
2022/12/03 01:42:24;;;;;;;0.10;0.10;;;4.00;99.90;;;;;;5049485;28;20029;-79
2022/12/03 01:44:53;;;;;;;0.75;0.75;;;3.90;99.90;;;;;;5032462;28;20082;-79
2022/12/03 01:47:23;;;;;;;1.00;0.50;;;4.00;99.90;;;;;;5049317;28;20078;-79
2022/12/03 01:49:53;;;;;;;1.00;0.95;;;4.00;99.90;;;;;;5048871;28;20059;-79
2022/12/03 01:52:23;;;;;;;0.38;0.38;;;4.00;99.90;;;;;;5032529;28;20033;-79
2022/12/03 01:54:54;;;;;;;0.95;0.95;;;4.00;99.90;;;;;;5038968;28;20037;-80
2022/12/03 01:57:28;;;;;;;0.43;0.43;;;4.00;99.90;;;;;;5048429;28;20052;-81
2022/12/03 01:59:58;;;;;;;1.02;0.90;;;4.10;99.90;;;;;;5050435;28;20037;-82
2022/12/03 02:02:28;;;;;;;1.85;1.20;;;4.10;99.90;;;;;;5049638;28;20056;-81
2022/12/03 02:04:55;;;;;;;0.50;0.50;;;4.00;99.90;;;;;;5030776;28;20729;-81
2022/12/03 02:07:20;;;;;;;0.20;0.20;;;4.10;99.90;;;;;;5031311;28;20119;-82
2022/12/03 02:09:46;;;;;;;1.55;1.17;;;4.10;99.90;;;;;;5048549;28;20037;-82
2022/12/03 02:12:14;;;;;;;0.22;0.22;;;4.10;99.90;;;;;;5048917;28;20108;-80
2022/12/03 02:14:40;;;;;;;0.80;0.80;;;4.10;99.90;;;;;;5046072;28;20043;-80
2022/12/03 02:17:06;;;;;;;0.40;0.40;;;4.00;99.90;;;;;;5048436;28;20506;-80
2022/12/03 02:19:31;;;;;;;0.20;0.20;;;4.00;99.90;;;;;;5063055;28;20035;-80
2022/12/03 02:22:17;;;;;;;0.25;0.25;;;4.10;99.90;;;;;;5049439;28;20025;-80
2022/12/03 02:25:09;;;;;;;0.10;0.10;;;4.10;99.90;;;;;;5051829;28;20021;-80
2022/12/03 02:27:35;;;;;;;0.75;0.75;;;4.10;99.90;;;;;;5048252;28;20358;-80
2022/12/03 02:30:02;;;;;;;0.47;0.47;;;4.00;99.90;;;;;;5040678;28;20100;-80
2022/12/03 02:32:28;;;;;;;1.02;1.00;;;4.10;99.90;;;;;;5046560;28;20029;-80
2022/12/03 02:34:53;;;;;;;0.30;0.30;;;4.00;99.90;;;;;;5048221;28;20048;-80
2022/12/03 02:37:24;;;;;;;0.30;0.30;;;3.90;99.90;;;;;;5047473;28;20406;-81
2022/12/03 02:39:54;;;;;;;0.30;0.30;;;3.90;99.90;;;;;;5044930;28;20029;-80
2022/12/03 02:42:36;;;;;;;0.60;0.60;;;3.90;99.90;;;;;;5045942;28;20033;-78
2022/12/03 02:45:12;;;;;;;0.17;0.17;;;3.90;99.90;;;;;;5026873;28;20029;-81
2022/12/03 02:47:44;;;;;;;0.47;0.47;;;3.80;99.90;;;;;;5035861;28;20447;-81
2022/12/03 02:50:14;;;;;;;0.10;0.10;;;3.90;99.90;;;;;;5047624;28;20044;-81
2022/12/03 02:52:41;;;;;;;0.17;0.17;;;3.80;99.90;;;;;;5049517;28;20685;-80
2022/12/03 02:55:08;;;;;;;0.25;0.25;;;3.90;99.90;;;;;;5035623;28;20163;-81
2022/12/03 02:57:35;;;;;;;;;;;4.00;99.90;;;;;;5048829;28;20101;-80
2022/12/03 03:00:01;;;;;;;0.20;0.20;;;3.90;99.90;;;;;;5049015;28;20618;-80
2022/12/03 03:02:27;;;;;;;0.38;0.38;;;3.90;99.90;;;;;;5048744;28;20037;-80
2022/12/03 03:04:54;;;;;;;0.75;0.75;;;3.90;99.90;;;;;;5048149;28;20016;-80
2022/12/03 03:07:20;;;;;;;0.40;0.40;;;3.90;99.90;;;;;;5030228;28;20198;-80
2022/12/03 03:09:45;;;;;;;0.28;0.28;;;3.90;99.90;;;;;;5047419;28;20100;-80
2022/12/03 03:12:11;;;;;;;0.30;0.30;;;3.90;99.90;;;;;;5030550;28;20043;-80
2022/12/03 03:14:37;;;;;;;0.40;0.40;;;3.90;99.90;;;;;;5044540;28;20056;-80
2022/12/03 03:17:03;;;;;;;0.17;0.17;;;3.90;99.90;;;;;;5048149;28;20025;-80
2022/12/03 03:19:29;;;;;;;0.20;0.20;;;3.90;99.90;;;;;;5047654;28;20037;-80
2022/12/03 03:21:55;;;;;;;0.10;0.10;;;3.90;99.90;;;;;;5029178;28;20593;-80
2022/12/03 03:24:22;;;;;;;0.40;0.40;;;4.00;99.90;;;;;;5047705;28;20029;-81
2022/12/03 03:26:48;;;;;;;1.48;1.38;;;4.00;99.90;;;;;;5047139;28;20082;-82
2022/12/03 03:29:14;;;;;;;0.10;0.10;;;4.00;99.90;;;;;;5029505;28;20060;-81
2022/12/03 03:31:41;;;;;;;0.10;0.10;;;4.00;99.90;;;;;;5047451;28;20479;-81
2022/12/03 03:34:07;;;;;;;0.30;0.30;;;3.90;99.90;;;;;;5047111;28;20029;-81
2022/12/03 03:36:33;;;;;;;0.15;0.15;;;3.90;99.90;;;;;;5047204;28;20072;-80
2022/12/03 03:38:59;;;;;;;1.27;0.70;;;3.90;99.90;;;;;;5043255;28;20099;-79
2022/12/03 03:41:26;;;;;;;2.50;1.45;;;4.00;99.90;;;;;;5029175;28;20041;-79
2022/12/03 03:43:52;;;;;;;3.40;1.10;;;3.90;99.90;;;;;;5047880;28;20532;-81
2022/12/03 03:46:18;;;;;;;0.10;0.10;;;3.90;99.90;;;;;;5047276;28;20037;-81
2022/12/03 03:48:47;;;;;;;0.68;0.68;;;3.90;99.90;;;;;;5047399;28;20037;-81
2022/12/03 03:51:14;;;;;;;0.50;0.50;;;3.90;99.90;;;;;;5047603;28;20051;-81
2022/12/03 03:53:43;;;;;;;0.15;0.15;;;4.00;99.90;;;;;;5035728;28;20086;-81
2022/12/03 03:56:10;;;;;;;0.75;0.65;;;3.90;99.90;;;;;;5048741;28;20056;-81
2022/12/03 03:58:36;;;;;;;0.93;0.93;;;3.80;99.90;;;;;;5062736;28;20040;-82
2022/12/03 04:01:02;;;;;;;0.28;0.28;;;3.80;99.90;;;;;;5047666;28;20077;-80
2022/12/03 04:03:28;;;;;;;0.15;0.15;;;3.80;99.90;;;;;;5047239;28;20537;-80
2022/12/03 04:05:54;;;;;;;0.38;0.38;;;3.90;99.90;;;;;;5047236;28;20025;-81
2022/12/03 04:08:20;;;;;;;0.10;0.10;;;3.90;99.90;;;;;;5047711;28;20036;-79
2022/12/03 04:13:29;;;;;;;0.30;0.30;;;3.80;99.90;;;;;;5046968;28;20048;-80
2022/12/03 04:15:55;;;;;;;1.40;1.23;;;3.90;99.90;;;;;;5044244;28;20563;-80
2022/12/03 04:23:49;;;;;;;0.70;0.45;;;3.80;99.90;;;;;;5045510;28;20047;-80
2022/12/03 04:28:59;;;;;;;0.55;0.55;;;3.80;99.90;;;;;;5045929;28;20039;-80
2022/12/03 04:36:54;;;;;;;5.05;1.45;;;3.90;99.90;;;;;;5045562;28;20048;-80
2022/12/03 04:39:20;;;;;;;0.50;0.50;;;3.90;99.90;;;;;;5047265;28;20710;-80
2022/12/03 04:41:46;;;;;;;0.70;0.70;;;3.90;99.90;;;;;;5047255;28;20032;-80
2022/12/03 04:46:56;;;;;;;0.85;0.85;;;3.90;99.90;;;;;;5047264;28;20518;-82
2022/12/03 04:49:22;;;;;;;0.90;0.85;;;3.90;99.90;;;;;;5046632;28;20036;-82
2022/12/03 04:51:47;;;;;;;0.55;0.55;;;3.80;99.90;;;;;;5038165;28;20033;-82
2022/12/03 04:54:14;;;;;;;0.10;0.10;;;3.80;99.90;;;;;;5052575;28;20033;-82
2022/12/03 04:56:39;;;;;;;0.35;0.35;;;3.80;99.90;;;;;;5029262;28;20048;-82
2022/12/03 04:59:05;;;;;;;0.55;0.55;;;3.80;99.90;;;;;;5060731;28;20033;-82
2022/12/03 05:01:31;;;;;;;0.52;0.52;;;3.90;99.90;;;;;;5047763;28;20021;-82
2022/12/03 05:03:56;;;;;;;0.68;0.68;;;3.80;99.90;;;;;;5046663;28;20118;-81
2022/12/03 05:06:22;;;;;;;0.40;0.40;;;3.90;99.90;;;;;;5046824;28;20083;-81
2022/12/03 05:08:48;;;;;;;0.38;0.38;;;3.90;99.90;;;;;;5046639;28;20052;-82
2022/12/03 05:11:14;;;;;;;0.50;0.50;;;3.90;99.90;;;;;;5046635;28;20125;-80
2022/12/03 05:13:39;;;;;;;0.70;0.70;;;3.90;99.90;;;;;;5046871;28;20083;-81
2022/12/03 05:16:05;;;;;;;0.15;0.15;;;3.90;99.90;;;;;;5046883;28;20068;-81
2022/12/03 05:18:31;;;;;;;0.30;0.30;;;3.90;99.90;;;;;;5026674;28;20032;-81
2022/12/03 05:20:56;;;;;;;1.58;1.48;;;3.90;99.90;;;;;;5026810;28;20147;-83
2022/12/03 05:23:22;;;;;;;0.43;0.43;;;3.90;99.90;;;;;;5047082;28;20053;-83
2022/12/03 05:25:48;;;;;;;0.52;0.52;;;3.90;99.90;;;;;;5049016;28;20036;-83
2022/12/03 05:28:14;;;;;;;0.60;0.60;;;4.00;99.90;;;;;;5050262;28;20037;-82
2022/12/03 05:30:40;;;;;;;0.43;0.43;;;3.90;99.90;;;;;;5064010;28;20032;-81
2022/12/03 05:33:05;;;;;;;0.30;0.30;;;3.90;99.90;;;;;;5049272;28;20571;-80
2022/12/03 05:35:31;;;;;;;0.63;0.52;;;3.90;99.90;;;;;;5049346;28;20830;-80
2022/12/03 05:37:57;;;;;;;0.20;0.20;;;3.90;99.90;;;;;;5031334;28;20504;-80
2022/12/03 05:40:23;;;;;;;0.10;0.10;;;3.90;99.90;;;;;;5041617;28;20060;-81
2022/12/03 05:42:52;;;;;;;0.20;0.20;;;3.80;99.90;;;;;;5049636;28;20090;-80
2022/12/03 05:45:25;;;;;;;0.47;0.47;;;3.80;99.90;;;;;;5048652;28;20036;-81
2022/12/03 05:47:52;;;;;;;1.13;1.00;;;3.80;99.90;;;;;;5029691;28;20127;-81
2022/12/03 05:50:22;;;;;;;0.50;0.50;;;3.90;99.90;;;;;;5029728;28;20033;-82
2022/12/03 05:52:48;;;;;;;0.50;0.50;;;3.90;99.90;;;;;;5044831;28;20085;-82
2022/12/03 05:55:14;;;;;;;0.85;0.65;;;3.90;99.90;;;;;;5049346;28;20864;-83
2022/12/03 05:57:40;;;;;;;0.40;0.40;;;3.90;99.90;;;;;;5031581;28;20136;-82
2022/12/03 06:00:13;;;;;;;0.20;0.20;;;3.80;99.90;;;;;;5048711;28;20211;-80
2022/12/03 06:02:39;;;;;;;0.10;0.10;;;3.80;99.90;;;;;;5031552;28;20024;-82
2022/12/03 06:05:06;;;;;;;0.20;0.20;;;3.80;99.90;;;;;;5048798;28;20021;-82
2022/12/03 06:07:31;;;;;;;0.90;0.90;;;3.80;99.90;;;;;;5048978;28;20094;-80
2022/12/03 06:09:57;;;;;;;0.60;0.60;;;3.80;99.90;;;;;;5042837;28;20116;-79
2022/12/03 06:12:23;;;;;;;0.60;0.47;;;3.70;99.90;;;;;;5049191;28;20024;-80
2022/12/03 06:14:48;;;;;;;1.27;0.85;;;3.80;99.90;;;;;;5049810;28;20868;-80
2022/12/03 06:17:14;;;;;;;0.10;0.10;;;3.90;99.90;;;;;;5048478;28;20033;-81
2022/12/03 06:19:40;;;;;;;0.95;0.95;;;3.80;99.90;;;;;;5048857;28;20029;-80
2022/12/03 06:22:05;;;;;;;0.10;0.10;;;3.80;99.90;;;;;;5049387;28;20072;-81
2022/12/03 06:24:31;;;;;;;0.20;0.20;;;3.80;99.90;;;;;;5049606;28;20617;-81
2022/12/03 06:26:57;;;;;;;0.10;0.10;;;3.80;99.90;;;;;;5049248;28;20841;-78
2022/12/03 06:29:22;;;;;;;0.22;0.22;;;3.80;99.90;;;;;;5048730;28;20025;-80
2022/12/03 06:31:48;;;;;;;0.57;0.57;;;3.90;99.90;;;;;;5030375;28;20082;-79
2022/12/03 06:34:13;;;;;;;0.22;0.22;;;4.00;99.90;;;;;;5047039;28;20037;-79
2022/12/03 06:36:39;;;;;;;1.60;1.50;;;3.80;99.90;;;;;;5048090;28;20043;-81
2022/12/03 06:39:05;;;;;;;0.20;0.20;;;3.70;99.90;;;;;;5048060;28;20029;-83
2022/12/03 06:41:30;;;;;;;0.13;0.13;;;3.70;99.90;;;;;;5049069;28;20032;-79
2022/12/03 06:43:56;;;;;;;0.10;0.10;;;3.70;99.90;;;;;;5047855;28;20805;-82
2022/12/03 06:46:22;;;;;;;1.13;0.68;;;3.70;99.90;;;;;;5029814;28;20020;-81
2022/12/03 06:48:47;;;;;;;0.17;0.17;;;3.70;99.90;;;;;;5046622;28;20131;-82
2022/12/03 06:51:13;;;;;;;0.47;0.47;;;3.70;99.90;;;;;;5045926;28;20045;-83
2022/12/03 06:53:39;;;;;;;1.55;0.80;;;3.60;99.90;;;;;;5047246;28;20021;-87
2022/12/03 06:56:04;;;;;;;0.32;0.32;;;3.60;99.90;;;;;;5049442;28;20062;-83
2022/12/03 06:58:30;;;;;;;0.55;0.55;;;3.60;99.90;;;;;;5048147;28;20659;-89
2022/12/03 07:00:56;;;;;;;0.10;0.10;;;3.60;99.90;;;;;;5046808;28;20039;-84
2022/12/03 07:03:21;;;;;;;0.63;0.63;;;3.70;99.90;;;;;;5047189;28;20021;-85
2022/12/03 07:05:47;;;;;;;1.45;1.10;;;3.70;99.90;;;;;;5029877;28;20506;-83
2022/12/03 07:08:13;;;;;;;0.15;0.15;;;3.60;99.90;;;;;;5050002;28;20028;-83
2022/12/03 07:10:38;;;;;;;0.52;0.52;;;3.60;99.90;;;;;;5028700;28;20033;-83
2022/12/03 07:13:04;;;;;;;0.20;0.20;;;3.70;99.90;;;;;;5047470;28;20538;-82
2022/12/03 07:15:30;;;;;;;0.35;0.35;;;3.60;99.90;;;;;;5029435;28;20524;-82
2022/12/03 07:17:55;;;;;;;0.50;0.50;;;3.60;99.90;;;;;;5047114;28;20037;-81
2022/12/03 07:20:21;;;;;;;2.95;1.50;;;3.70;99.90;;;;;;5037092;28;20154;-85
2022/12/03 07:22:47;;;;;;;0.77;0.77;;;3.60;99.90;;;;;;5021148;28;20033;-83
2022/12/03 07:25:13;;;;;;;1.88;0.75;;;3.70;99.90;;;;;;5029537;28;20059;-82
2022/12/03 07:27:39;;;;;;;0.53;0.53;;;3.70;99.90;;;;;;5040739;28;20052;-80
2022/12/03 07:30:06;;;;;;;1.60;1.50;;;3.70;99.90;;;;;;5047174;28;20071;-80
2022/12/03 07:32:32;;;;;;;0.45;0.25;;;3.70;99.90;;;;;;5014196;28;20033;-82
2022/12/03 07:34:57;;;;;;;0.32;0.32;;;3.70;99.90;;;;;;5049647;28;20602;-81
2022/12/03 07:37:23;;;;;;;0.17;0.17;;;3.60;99.90;;;;;;5046281;28;20076;-80
2022/12/03 07:39:51;;;;;;;0.40;0.40;;;3.70;99.90;;;;;;5046868;28;20028;-81
2022/12/03 07:42:16;;;;;;;0.30;0.30;;;3.70;99.90;;;;;;5046971;28;20041;-83
2022/12/03 07:44:42;;;;;;;0.30;0.30;;;3.70;99.90;;;;;;5045851;28;20025;-80
2022/12/03 07:47:08;;;;;;;0.30;0.30;;;3.60;99.90;;;;;;5038191;28;20120;-81
2022/12/03 07:49:33;;;;;;;0.20;0.20;;;3.70;99.90;;;;;;5036418;28;20628;-80
2022/12/03 07:51:59;;;;;;;0.60;0.47;;;3.70;99.90;;;;;;5038229;28;20104;-86
2022/12/03 07:54:26;;;;;;;0.65;0.65;;;3.70;99.90;;;;;;5037126;28;20068;-86
2022/12/03 07:56:51;;;;;;;0.10;0.10;;;3.70;99.90;;;;;;5030847;28;20067;-84
2022/12/03 07:59:17;;;;;;;6.82;0.75;;;3.70;99.90;;;;;;5044935;28;20513;-83
2022/12/03 08:01:43;;;;;;;0.10;0.10;;;3.80;99.90;;;;;;5048514;28;20104;-85
2022/12/03 08:04:11;;;;;;;0.57;0.57;;;3.90;99.90;;;;;;5030991;28;20174;-81
2022/12/03 08:06:37;;;;;;;0.52;0.52;;;3.80;99.90;;;;;;5042666;28;20037;-84
2022/12/03 08:09:03;;;;;;;0.20;0.20;;;3.80;99.90;;;;;;5042435;28;20040;-83
2022/12/03 08:11:28;;;;;;;0.03;0.03;;;3.80;99.90;;;;;;5048023;28;20029;-82
2022/12/03 08:13:56;;;;;;;0.32;0.32;;;3.70;99.90;;;;;;5045363;28;20536;-82
2022/12/03 08:16:21;;;;;;;2.03;1.35;;;3.70;99.90;;;;;;5026901;28;20032;-82
2022/12/03 08:18:48;;;;;;;1.10;1.10;;;3.70;99.90;;;;;;5048944;28;20115;-84
2022/12/03 08:21:17;;;;;;;0.13;0.13;;;3.70;99.90;;;;;;5046091;28;20041;-82
2022/12/03 08:23:43;;;;;;;0.30;0.30;;;3.80;99.90;;;;;;5046921;28;20842;-82
2022/12/03 08:26:26;;;;;;;0.70;0.70;;;3.80;99.90;;;;;;5047771;28;20025;-86
2022/12/03 08:28:52;;;;;;;1.00;1.00;;;3.80;99.90;;;;;;5043838;28;20506;-81
2022/12/03 08:31:24;;;;;;;0.28;0.28;;;3.80;99.90;;;;;;5046416;28;20578;-83
2022/12/03 08:33:52;;;;;;;0.28;0.28;;;3.80;99.90;;;;;;5048960;28;20025;-85
2022/12/03 08:36:22;;;;;;;0.47;0.47;;;3.90;99.90;;;;;;5030356;28;20115;-81
2022/12/03 08:38:54;;;;;;;0.30;0.30;;;4.00;99.90;;;;;;5045445;28;20056;-84
2022/12/03 08:44:27;;;;;;;0.50;0.47;;;3.90;99.90;;;;;;5048904;28;20097;-83
2022/12/03 08:47:07;;;;;;;2.90;0.77;;;4.00;99.90;;;;;;5047350;28;20037;-83
2022/12/03 08:49:33;;;;;;;0.75;0.75;;;4.00;99.90;;;;;;5048320;28;20024;-83
2022/12/03 08:52:00;;;;;;;0.20;0.20;;;4.10;99.90;;;;;;5047611;28;20600;-82
2022/12/03 08:54:26;;;;;;;0.65;0.65;;;4.10;99.90;;;;;;5048061;28;20025;-86
2022/12/03 08:56:53;;;;;;;0.25;0.25;;;4.10;99.90;;;;;;5047735;28;20133;-81
2022/12/03 08:59:29;;;;;;;0.30;0.30;;;4.20;99.90;;;;;;5048314;28;20025;-87
2022/12/03 09:01:55;;;;;;;0.30;0.30;;;4.20;99.90;;;;;;5051755;28;20064;-80
2022/12/03 09:04:56;;;;;;;0.10;0.10;;;4.20;99.90;;;;;;5052998;28;20572;-84
2022/12/03 09:07:22;;;;;;;0.70;0.70;;;4.30;99.90;;;;;;4970006;28;20039;-85
2022/12/03 09:09:48;;;;;;;0.50;0.50;;;4.20;99.90;;;;;;5016285;28;20053;-86
2022/12/03 09:12:13;;;;;;;0.50;0.50;;;4.30;99.90;;;;;;5030057;28;20033;-86
2022/12/03 09:14:39;;;;;;;0.40;0.40;;;4.20;99.90;;;;;;5051656;28;20039;-87
2022/12/03 09:17:04;;;;;;;0.15;0.15;;;4.30;99.90;;;;;;5044723;28;20153;-87
2022/12/03 09:19:30;;;;;;;0.75;0.75;;;4.30;99.90;;;;;;5044532;28;20108;-86
2022/12/03 09:21:56;;;;;;;1.33;0.38;;;4.40;99.90;;;;;;5050674;28;20033;-86
2022/12/03 09:24:22;;;;;;;0.20;0.20;;;4.50;99.90;;;;;;5032715;28;20033;-87
2022/12/03 09:26:48;;;;;;;0.38;0.38;;;4.90;99.90;;;;;;5031842;28;20633;-86
2022/12/03 09:29:13;;;;;;;0.47;0.47;;;5.10;99.90;;;;;;5050684;28;20078;-87
2022/12/03 09:31:39;;;;;;;0.20;0.20;;;5.30;99.90;;;;;;5050655;28;20509;-86
2022/12/03 09:34:06;;;;;;;0.50;0.50;;;5.50;99.90;;;;;;5050973;28;20039;-86
2022/12/03 09:36:32;;;;;;;0.20;0.20;;;5.50;99.90;;;;;;5061135;28;20650;-83
2022/12/03 09:38:58;;;;;;;0.55;0.55;;;5.50;99.90;;;;;;5033625;28;20599;-86
2022/12/03 09:41:25;;;;;;;0.57;0.57;;;5.60;99.90;;;;;;5046591;28;20408;-87
2022/12/03 09:43:52;;;;;;;1.20;0.98;;;5.40;99.90;;;;;;5054479;28;20045;-85
2022/12/03 09:46:19;;;;;;;0.52;0.52;;;5.50;99.90;;;;;;5044868;28;20468;-85
2022/12/03 09:48:45;;;;;;;0.20;0.20;;;5.40;99.90;;;;;;5051549;28;20040;-85
2022/12/03 09:51:11;;;;;;;0.10;0.10;;;5.40;99.90;;;;;;5050526;28;20032;-85
2022/12/03 09:53:38;;;;;;;0.32;0.32;;;5.50;99.90;;;;;;5051254;28;20606;-85
2022/12/03 09:56:04;;;;;;;1.70;0.65;;;5.40;99.90;;;;;;5050696;28;20045;-85
2022/12/03 09:58:29;;;;;;;0.20;0.20;;;5.40;99.90;;;;;;5051078;28;20029;-85
2022/12/03 10:00:56;;;;;;;0.35;0.35;;;5.40;99.90;;;;;;5050384;28;20476;-86
2022/12/03 10:03:24;;;;;;;2.13;1.92;;;5.60;99.90;;;;;;5050981;28;20095;-87
2022/12/03 10:05:52;;;;;;;0.73;0.73;;;5.70;99.90;;;;;;5046111;28;20104;-88
2022/12/03 10:08:20;;;;;;;0.20;0.20;;;6.00;99.90;;;;;;5032050;28;20052;-85
2022/12/03 10:10:51;;;;;;;7.53;1.77;;;6.10;99.90;;;;;;5031617;28;20475;-86
2022/12/03 10:13:27;;;;;;;1.55;1.33;;;6.00;99.90;;;;;;5050636;28;20033;-86
2022/12/03 10:15:56;;;;;;;0.65;0.65;;;6.10;99.90;;;;;;5045380;28;20040;-87
2022/12/03 10:18:25;;;;;;;0.30;0.30;;;5.90;99.90;;;;;;5047057;28;20059;-85
2022/12/03 10:20:51;;;;;;;0.63;0.63;;;5.90;99.90;;;;;;5047207;28;20021;-86
2022/12/03 10:23:29;;;;;;;0.95;0.95;;;5.80;99.90;;;;;;5046626;28;20047;-87
2022/12/03 10:26:01;;;;;;;0.63;0.63;;;5.90;99.90;;;;;;5048077;28;20028;-88
2022/12/03 10:28:33;;;;;;;0.30;0.30;;;6.00;99.90;;;;;;5032632;28;20124;-87
2022/12/03 10:31:02;;;;;;;0.17;0.17;;;6.20;99.90;;;;;;5047102;28;20024;-86
2022/12/03 10:33:33;;;;;;;0.22;0.22;;;5.60;99.90;;;;;;5045909;28;20094;-87
2022/12/03 10:36:19;;;;;;;0.77;0.43;;;5.50;99.90;;;;;;5026484;28;20039;-86
2022/12/03 10:38:45;;;;;;;0.77;0.75;;;5.90;99.90;;;;;;5029554;28;20033;-88
2022/12/03 10:41:26;;;;;;;0.22;0.22;;;6.10;99.90;;;;;;5071549;28;20525;-86
2022/12/03 10:43:52;;;;;;;0.30;0.30;;;6.20;99.90;;;;;;5050412;28;20404;-86
2022/12/03 10:46:21;;;;;;;0.20;0.20;;;6.20;99.90;;;;;;5033622;28;20033;-90
2022/12/03 10:49:07;;;;;;;0.95;0.95;;;6.00;99.90;;;;;;5032097;28;20132;-89
2022/12/03 10:51:33;;;;;;;0.10;0.10;;;5.90;99.90;;;;;;5052566;28;20029;-86
2022/12/03 10:54:00;;;;;;;0.20;0.20;;;5.90;99.90;;;;;;5050894;28;20722;-89
2022/12/03 10:56:26;;;;;;;0.30;0.30;;;5.90;99.90;;;;;;5024508;28;20049;-84
2022/12/03 10:58:52;;;;;;;0.20;0.20;;;6.20;99.90;;;;;;5041178;28;20034;-88
2022/12/03 11:01:21;;;;;;;0.60;0.60;;;6.60;99.90;;;;;;5030220;28;20076;-87
2022/12/03 11:03:47;;;;;;;0.20;0.20;;;6.80;99.90;;;;;;5023868;28;20037;-89
2022/12/03 11:06:16;;;;;;;0.77;0.63;;;7.00;99.90;;;;;;5028056;28;20055;-86
2022/12/03 11:08:44;;;;;;;0.43;0.43;;;7.00;99.90;;;;;;5040032;28;20037;-87
2022/12/03 11:11:18;;;;;;;0.40;0.40;;;7.00;99.90;;;;;;5049237;28;20044;-86
2022/12/03 11:13:52;;;;;;;0.60;0.60;;;6.90;99.90;;;;;;5024154;28;20113;-84
2022/12/03 11:16:40;;;;;;;0.20;0.20;;;7.10;99.90;;;;;;5013180;28;20064;-86
2022/12/03 11:19:11;;;;;;;0.50;0.50;;;6.70;99.90;;;;;;5018038;28;20037;-87
2022/12/03 11:22:02;;;;;;;0.50;0.50;;;6.30;99.90;;;;;;5029593;28;20032;-81
2022/12/03 11:24:29;;;;;;;0.40;0.40;;;6.30;99.90;;;;;;5026715;28;20156;-84
2022/12/03 11:26:54;;;;;;;0.40;0.40;;;6.50;99.90;;;;;;5024378;28;20044;-83
2022/12/03 11:29:46;;;;;;;0.75;0.75;;;6.40;99.90;;;;;;5029048;28;20029;-88
2022/12/03 11:32:37;;;;;;;3.85;0.57;;;6.50;99.90;;;;;;5029198;28;20045;-82
2022/12/03 11:35:14;;;;;;;0.50;0.50;;;6.50;99.90;;;;;;5026476;28;20120;-84
2022/12/03 11:37:40;;;;;;;1.17;0.80;;;6.40;99.90;;;;;;5028083;28;20087;-85
2022/12/03 11:40:15;;;;;;;0.30;0.30;;;6.40;99.90;;;;;;5021875;28;20202;-86
2022/12/03 11:42:41;;;;;;;1.25;0.93;;;6.60;99.90;;;;;;5027654;28;20943;-87
2022/12/03 11:45:07;;;;;;;0.20;0.20;;;6.90;99.90;;;;;;5022372;28;20133;-86
2022/12/03 11:47:58;;;;;;;0.35;0.35;;;7.00;99.90;;;;;;5027244;28;20069;-80
2022/12/03 11:50:38;;;;;;;0.80;0.52;;;7.00;99.90;;;;;;5027757;28;20037;-82
2022/12/03 11:53:09;;;;;;;0.30;0.30;;;7.00;99.90;;;;;;5027164;28;20052;-83
2022/12/03 11:55:39;;;;;;;0.10;0.10;;;7.20;99.90;;;;;;5027675;28;20779;-83
2022/12/03 11:58:14;;;;;;;0.32;0.32;;;7.30;99.90;;;;;;5045005;28;20056;-83
2022/12/03 12:00:48;;;;;;;0.40;0.40;;;7.30;99.90;;;;;;5043491;28;20056;-82
2022/12/03 12:03:33;;;;;;;0.50;0.50;;;7.20;99.90;;;;;;5046730;28;20064;-83
2022/12/03 12:06:06;;;;;;;0.82;0.82;;;7.20;99.90;;;;;;5047275;28;20021;-81
2022/12/03 12:08:34;;;;;;;0.77;0.73;;;7.30;99.90;;;;;;5043496;28;20082;-81
2022/12/03 12:11:00;;;;;;;3.42;1.65;;;7.20;99.90;;;;;;5044878;28;20028;-83
2022/12/03 12:13:30;;;;;;;0.10;0.10;;;7.20;99.90;;;;;;5029201;28;20029;-86
2022/12/03 12:16:04;;;;;;;1.08;0.90;;;7.20;99.90;;;;;;5044064;28;20025;-81
2022/12/03 12:18:40;;;;;;;0.43;0.43;;;7.30;99.90;;;;;;5028720;28;20076;-79
2022/12/03 12:21:41;;;;;;;0.45;0.45;;;7.60;99.90;;;;;;5046228;28;20047;-83
2022/12/03 12:24:30;;;;;;;0.35;0.35;;;7.80;99.90;;;;;;5046628;28;20566;-85
2022/12/03 12:27:06;;;;;;;0.28;0.28;;;7.80;99.90;;;;;;5029283;28;20025;-84
2022/12/03 12:29:32;;;;;;;0.10;0.10;;;7.70;99.90;;;;;;5044521;28;20033;-84
2022/12/03 12:32:13;;;;;;;0.98;0.80;;;7.50;99.90;;;;;;5028670;28;20033;-84
2022/12/03 12:34:47;;;;;;;0.30;0.30;;;7.50;99.90;;;;;;5030077;28;20140;-84
2022/12/03 12:37:21;;;;;;;0.43;0.43;;;7.70;99.90;;;;;;5048322;28;20037;-84
2022/12/03 12:39:47;;;;;;;0.32;0.32;;;7.90;99.90;;;;;;5050697;28;20641;-84
2022/12/03 12:42:35;;;;;;;0.40;0.40;;;8.10;99.90;;;;;;5047581;28;20084;-85
2022/12/03 12:45:22;;;;;;;0.20;0.20;;;8.10;99.90;;;;;;5060451;28;20059;-85
2022/12/03 12:48:06;;;;;;;0.28;0.28;;;8.20;99.90;;;;;;5044395;28;20032;-86
2022/12/03 12:50:32;;;;;;;0.80;0.45;;;8.20;99.90;;;;;;5049461;28;20032;-85
2022/12/03 12:53:24;;;;;;;0.10;0.10;;;7.90;99.90;;;;;;5033775;28;20697;-85
2022/12/03 12:56:10;;;;;;;0.80;0.55;;;8.00;99.90;;;;;;5016222;28;20052;-84
2022/12/03 12:58:35;;;;;;;0.95;0.95;;;8.10;99.90;;;;;;5045460;28;20025;-85
2022/12/03 13:01:11;;;;;;;0.20;0.20;;;8.00;99.90;;;;;;5046714;28;20021;-85
2022/12/03 13:03:38;;;;;;;1.15;1.05;;;8.00;99.90;;;;;;5048879;28;20045;-86
2022/12/03 13:06:05;;;;;;;1.23;0.82;;;8.10;99.90;;;;;;5048758;28;20063;-85
2022/12/03 13:08:37;;;;;;;0.17;0.17;;;8.30;99.90;;;;;;5048077;28;20215;-85
2022/12/03 13:11:03;;;;;;;0.17;0.17;;;8.20;99.90;;;;;;5030572;28;20064;-85
2022/12/03 13:13:30;;;;;;;0.77;0.57;;;8.20;99.90;;;;;;5048658;28;20056;-85
2022/12/03 13:16:10;;;;;;;1.55;0.47;;;8.20;99.90;;;;;;5064284;28;20102;-85
2022/12/03 13:18:41;;;;;;;1.75;0.85;;;8.20;99.90;;;;;;5032864;28;20060;-85
2022/12/03 13:21:35;;;;;;;0.52;0.52;;;8.30;99.90;;;;;;5048899;28;20429;-85
2022/12/03 13:24:01;;;;;;;0.50;0.50;;;8.20;99.90;;;;;;5020389;28;20037;-84
2022/12/03 13:26:39;;;;;;;0.40;0.40;;;8.10;99.90;;;;;;5049429;28;20104;-85